createdAt,value
2018-01-22T00:00:31.360Z,951.40
2018-01-22T00:01:31.359Z,951.39
2018-01-22T00:02:31.361Z,951.34
2018-01-22T00:03:31.363Z,951.32
2018-01-22T00:04:31.363Z,951.32
2018-01-22T00:05:31.368Z,951.29
2018-01-22T00:06:31.367Z,951.24
2018-01-22T00:07:31.369Z,951.20
2018-01-22T00:08:31.377Z,951.22
2018-01-22T00:09:31.371Z,951.22
2018-01-22T00:10:31.373Z,951.19
2018-01-22T00:11:31.374Z,951.17
2018-01-22T00:12:31.377Z,951.16
2018-01-22T00:13:31.376Z,951.22
2018-01-22T00:14:31.379Z,951.16
2018-01-22T00:15:31.381Z,951.11
2018-01-22T00:16:31.382Z,951.08
2018-01-22T00:17:31.382Z,951.08
2018-01-22T00:18:31.384Z,951.12
2018-01-22T00:19:31.386Z,951.08
2018-01-22T00:20:31.387Z,950.99
2018-01-22T00:21:31.389Z,951.09
2018-01-22T00:22:31.390Z,951.10
2018-01-22T00:23:31.401Z,951.04
2018-01-22T00:24:31.393Z,950.96
2018-01-22T00:25:31.395Z,950.91
2018-01-22T00:26:31.396Z,950.95
2018-01-22T00:27:31.398Z,950.91
2018-01-22T00:28:31.398Z,950.89
2018-01-22T00:29:31.400Z,950.90
2018-01-22T00:30:31.401Z,950.88
2018-01-22T00:31:31.403Z,950.86
2018-01-22T00:32:31.407Z,950.82
2018-01-22T00:33:31.407Z,950.81
2018-01-22T00:34:31.407Z,950.78
2018-01-22T00:35:31.409Z,950.77
2018-01-22T00:36:31.410Z,950.74
2018-01-22T00:37:31.411Z,950.72
2018-01-22T00:38:31.414Z,950.74
2018-01-22T00:39:31.414Z,950.69
2018-01-22T00:40:31.415Z,950.69
2018-01-22T00:41:31.417Z,950.71
2018-01-22T00:42:31.419Z,950.70
2018-01-22T00:43:31.420Z,950.69
2018-01-22T00:44:31.421Z,950.66
2018-01-22T00:45:31.423Z,950.64
2018-01-22T00:46:31.433Z,950.67
2018-01-22T00:47:31.426Z,950.72
2018-01-22T00:48:31.428Z,950.69
2018-01-22T00:49:31.428Z,950.66
2018-01-22T00:50:31.431Z,950.59
2018-01-22T00:51:31.433Z,950.59
2018-01-22T00:52:31.432Z,950.55
2018-01-22T00:53:31.434Z,950.60
2018-01-22T00:54:31.435Z,950.62
2018-01-22T00:55:31.437Z,950.62
2018-01-22T00:56:31.438Z,950.61
2018-01-22T00:57:31.439Z,950.62
2018-01-22T00:58:31.441Z,950.57
2018-01-22T00:59:31.444Z,950.60
2018-01-22T01:00:31.444Z,950.49
2018-01-22T01:01:31.445Z,950.53
2018-01-22T01:02:31.447Z,950.56
2018-01-22T01:03:31.449Z,950.52
2018-01-22T01:04:31.449Z,950.54
2018-01-22T01:05:31.452Z,950.52
2018-01-22T01:06:31.451Z,950.50
2018-01-22T01:07:31.455Z,950.43
2018-01-22T01:08:31.455Z,950.48
2018-01-22T01:09:31.457Z,950.49
2018-01-22T01:10:31.460Z,950.57
2018-01-22T01:11:31.461Z,950.46
2018-01-22T01:12:31.462Z,950.46
2018-01-22T01:13:31.462Z,950.47
2018-01-22T01:14:31.464Z,950.50
2018-01-22T01:15:31.465Z,950.45
2018-01-22T01:16:31.466Z,950.49
2018-01-22T01:17:31.468Z,950.49
2018-01-22T01:18:31.471Z,950.55
2018-01-22T01:19:31.472Z,950.50
2018-01-22T01:20:31.473Z,950.48
2018-01-22T01:21:31.474Z,950.46
2018-01-22T01:22:31.475Z,950.45
2018-01-22T01:23:31.477Z,950.49
2018-01-22T01:24:31.478Z,950.43
2018-01-22T01:25:31.480Z,950.41
2018-01-22T01:26:31.483Z,950.40
2018-01-22T01:27:31.483Z,950.36
2018-01-22T01:28:31.486Z,950.36
2018-01-22T01:29:31.486Z,950.30
2018-01-22T01:30:31.491Z,950.32
2018-01-22T01:31:31.488Z,950.32
2018-01-22T01:32:31.489Z,950.31
2018-01-22T01:33:31.492Z,950.32
2018-01-22T01:34:31.492Z,950.29
2018-01-22T01:35:31.494Z,950.31
2018-01-22T01:36:31.494Z,950.29
2018-01-22T01:37:31.496Z,950.31
2018-01-22T01:38:31.498Z,950.33
2018-01-22T01:39:31.497Z,950.28
2018-01-22T01:40:31.503Z,950.24
2018-01-22T01:41:31.502Z,950.26
2018-01-22T01:42:31.505Z,950.29
2018-01-22T01:43:31.505Z,950.23
2018-01-22T01:44:31.505Z,950.27
2018-01-22T01:45:31.507Z,950.23
2018-01-22T01:46:31.509Z,950.17
2018-01-22T01:47:31.510Z,950.11
2018-01-22T01:48:31.511Z,950.15
2018-01-22T01:49:31.513Z,950.11
2018-01-22T01:50:31.516Z,950.13
2018-01-22T01:51:31.518Z,950.06
2018-01-22T01:52:31.517Z,950.04
2018-01-22T01:53:31.519Z,950.06
2018-01-22T01:54:31.520Z,950.01
2018-01-22T01:55:31.522Z,949.99
2018-01-22T01:56:31.522Z,950.00
2018-01-22T01:57:31.529Z,950.04
2018-01-22T01:58:31.527Z,949.99
2018-01-22T01:59:31.528Z,949.95
2018-01-22T02:00:31.528Z,949.96
2018-01-22T02:01:31.530Z,949.94
2018-01-22T02:02:31.533Z,949.94
2018-01-22T02:03:31.535Z,949.96
2018-01-22T02:04:31.534Z,949.93
2018-01-22T02:05:31.535Z,949.93
2018-01-22T02:06:31.537Z,949.97
2018-01-22T02:07:31.539Z,949.98
2018-01-22T02:08:31.539Z,949.92
2018-01-22T02:09:31.541Z,949.95
2018-01-22T02:10:31.543Z,949.90
2018-01-22T02:11:31.544Z,949.94
2018-01-22T02:12:31.545Z,949.95
2018-01-22T02:13:31.547Z,949.88
2018-01-22T02:14:31.549Z,949.93
2018-01-22T02:15:31.551Z,949.89
2018-01-22T02:16:31.551Z,949.88
2018-01-22T02:17:31.553Z,949.85
2018-01-22T02:18:31.555Z,949.85
2018-01-22T02:19:31.556Z,949.84
2018-01-22T02:20:31.556Z,949.83
2018-01-22T02:21:31.557Z,949.86
2018-01-22T02:22:31.559Z,949.85
2018-01-22T02:23:31.561Z,949.84
2018-01-22T02:24:31.561Z,949.80
2018-01-22T02:25:31.563Z,949.84
2018-01-22T02:26:31.566Z,949.81
2018-01-22T02:27:31.566Z,949.84
2018-01-22T02:28:31.570Z,949.83
2018-01-22T02:29:31.569Z,949.84
2018-01-22T02:30:31.570Z,949.86
2018-01-22T02:31:31.572Z,949.84
2018-01-22T02:32:31.572Z,949.86
2018-01-22T02:33:31.574Z,949.81
2018-01-22T02:34:31.576Z,949.82
2018-01-22T02:35:31.578Z,949.83
2018-01-22T02:36:31.578Z,949.82
2018-01-22T02:37:31.581Z,949.81
2018-01-22T02:38:31.582Z,949.85
2018-01-22T02:39:31.584Z,949.81
2018-01-22T02:40:31.584Z,949.80
2018-01-22T02:41:31.585Z,949.79
2018-01-22T02:42:31.587Z,949.75
2018-01-22T02:43:31.588Z,949.72
2018-01-22T02:44:31.614Z,949.74
2018-01-22T02:45:31.592Z,949.68
2018-01-22T02:46:31.592Z,949.62
2018-01-22T02:47:31.594Z,949.66
2018-01-22T02:48:31.594Z,949.69
2018-01-22T02:49:31.597Z,949.66
2018-01-22T02:50:31.598Z,949.68
2018-01-22T02:51:31.599Z,949.68
2018-01-22T02:52:31.604Z,949.68
2018-01-22T02:53:31.601Z,949.69
2018-01-22T02:54:31.604Z,949.75
2018-01-22T02:55:31.605Z,949.71
2018-01-22T02:56:31.606Z,949.74
2018-01-22T02:57:31.608Z,949.76
2018-01-22T02:58:31.607Z,949.74
2018-01-22T02:59:31.612Z,949.77
2018-01-22T03:00:31.611Z,949.76
2018-01-22T03:01:31.613Z,949.73
2018-01-22T03:02:31.615Z,949.74
2018-01-22T03:03:31.616Z,949.74
2018-01-22T03:04:31.617Z,949.80
2018-01-22T03:05:31.618Z,949.80
2018-01-22T03:06:31.620Z,949.70
2018-01-22T03:07:31.622Z,949.71
2018-01-22T03:08:31.622Z,949.75
2018-01-22T03:09:31.624Z,949.78
2018-01-22T03:10:31.626Z,949.78
2018-01-22T03:11:31.627Z,949.72
2018-01-22T03:12:31.628Z,949.80
2018-01-22T03:13:31.630Z,949.77
2018-01-22T03:14:31.631Z,949.80
2018-01-22T03:15:31.633Z,949.80
2018-01-22T03:16:31.634Z,949.77
2018-01-22T03:17:31.635Z,949.82
2018-01-22T03:18:31.638Z,949.86
2018-01-22T03:19:31.638Z,949.85
2018-01-22T03:20:31.641Z,949.85
2018-01-22T03:21:31.641Z,949.82
2018-01-22T03:22:31.642Z,949.85
2018-01-22T03:23:31.642Z,949.85
2018-01-22T03:24:31.646Z,949.79
2018-01-22T03:25:31.646Z,949.81
2018-01-22T03:26:31.648Z,949.86
2018-01-22T03:27:31.650Z,949.86
2018-01-22T03:28:31.650Z,949.84
2018-01-22T03:29:31.651Z,949.87
2018-01-22T03:30:31.654Z,949.87
2018-01-22T03:31:31.658Z,949.88
2018-01-22T03:32:31.656Z,949.93
2018-01-22T03:33:31.657Z,949.89
2018-01-22T03:34:31.659Z,949.90
2018-01-22T03:35:31.661Z,949.96
2018-01-22T03:36:31.659Z,949.89
2018-01-22T03:37:31.663Z,949.93
2018-01-22T03:38:31.665Z,949.91
2018-01-22T03:39:31.667Z,949.93
2018-01-22T03:40:31.666Z,949.88
2018-01-22T03:41:31.672Z,949.90
2018-01-22T03:42:31.672Z,949.91
2018-01-22T03:43:31.673Z,949.94
2018-01-22T03:44:31.673Z,949.94
2018-01-22T03:45:31.675Z,949.93
2018-01-22T03:46:31.676Z,949.96
2018-01-22T03:47:31.678Z,949.98
2018-01-22T03:48:31.679Z,949.92
2018-01-22T03:49:31.680Z,949.92
2018-01-22T03:50:31.685Z,949.90
2018-01-22T03:51:31.685Z,949.90
2018-01-22T03:52:31.684Z,949.89
2018-01-22T03:53:31.688Z,949.83
2018-01-22T03:54:31.688Z,949.79
2018-01-22T03:55:31.690Z,949.82
2018-01-22T03:56:31.690Z,949.89
2018-01-22T03:57:31.692Z,949.88
2018-01-22T03:58:31.693Z,949.89
2018-01-22T03:59:31.695Z,949.89
2018-01-22T04:00:31.696Z,949.82
2018-01-22T04:01:31.698Z,949.81
2018-01-22T04:02:31.699Z,949.82
2018-01-22T04:03:31.701Z,949.86
2018-01-22T04:04:31.703Z,949.85
2018-01-22T04:05:31.703Z,949.83
2018-01-22T04:06:31.705Z,949.81
2018-01-22T04:07:31.707Z,949.79
2018-01-22T04:08:31.713Z,949.78
2018-01-22T04:09:31.710Z,949.72
2018-01-22T04:10:31.711Z,949.77
2018-01-22T04:11:31.713Z,949.74
2018-01-22T04:12:31.714Z,949.73
2018-01-22T04:13:31.715Z,949.74
2018-01-22T04:14:31.720Z,949.76
2018-01-22T04:15:31.719Z,949.73
2018-01-22T04:16:31.719Z,949.81
2018-01-22T04:17:31.721Z,949.81
2018-01-22T04:18:31.723Z,949.80
2018-01-22T04:19:31.727Z,949.81
2018-01-22T04:20:31.728Z,949.80
2018-01-22T04:21:31.727Z,949.83
2018-01-22T04:22:31.729Z,949.87
2018-01-22T04:23:31.739Z,949.85
2018-01-22T04:24:31.731Z,949.80
2018-01-22T04:25:31.733Z,949.79
2018-01-22T04:26:31.734Z,949.79
2018-01-22T04:27:31.736Z,949.79
2018-01-22T04:28:31.736Z,949.80
2018-01-22T04:29:31.738Z,949.84
2018-01-22T04:30:31.744Z,949.90
2018-01-22T04:31:31.741Z,949.88
2018-01-22T04:32:31.742Z,949.84
2018-01-22T04:33:31.744Z,949.98
2018-01-22T04:34:31.745Z,950.05
2018-01-22T04:35:31.747Z,950.03
2018-01-22T04:36:31.747Z,950.07
2018-01-22T04:37:31.750Z,950.08
2018-01-22T04:38:31.751Z,950.07
2018-01-22T04:39:31.753Z,950.00
2018-01-22T04:40:31.753Z,950.07
2018-01-22T04:41:31.755Z,950.04
2018-01-22T04:42:31.757Z,950.03
2018-01-22T04:43:31.758Z,950.05
2018-01-22T04:44:31.758Z,950.13
2018-01-22T04:45:31.761Z,950.15
2018-01-22T04:46:31.761Z,950.09
2018-01-22T04:47:31.763Z,950.14
2018-01-22T04:48:31.812Z,950.22
2018-01-22T04:49:31.766Z,950.18
2018-01-22T04:50:31.772Z,950.18
2018-01-22T04:51:31.771Z,950.25
2018-01-22T04:52:31.770Z,950.25
2018-01-22T04:53:31.772Z,950.28
2018-01-22T04:54:31.773Z,950.25
2018-01-22T04:55:31.775Z,950.23
2018-01-22T04:56:31.775Z,950.17
2018-01-22T04:57:31.779Z,950.18
2018-01-22T04:58:31.778Z,950.15
2018-01-22T04:59:31.781Z,950.24
2018-01-22T05:00:31.781Z,950.21
2018-01-22T05:01:31.791Z,950.21
2018-01-22T05:02:31.784Z,950.19
2018-01-22T05:03:31.786Z,949.85
2018-01-22T05:04:31.786Z,950.15
2018-01-22T05:05:31.788Z,950.14
2018-01-22T05:06:31.790Z,950.16
2018-01-22T05:07:31.795Z,950.13
2018-01-22T05:08:31.792Z,950.14
2018-01-22T05:09:31.794Z,950.18
2018-01-22T05:10:31.796Z,950.16
2018-01-22T05:11:31.798Z,950.13
2018-01-22T05:12:31.798Z,950.06
2018-01-22T05:13:31.800Z,950.07
2018-01-22T05:14:31.802Z,950.13
2018-01-22T05:15:31.829Z,950.11
2018-01-22T05:16:31.811Z,950.14
2018-01-22T05:17:31.812Z,950.12
2018-01-22T05:18:31.814Z,950.08
2018-01-22T05:19:31.817Z,950.12
2018-01-22T05:20:31.814Z,950.14
2018-01-22T05:21:31.814Z,950.14
2018-01-22T05:22:31.818Z,950.14
2018-01-22T05:23:31.819Z,950.14
2018-01-22T05:24:31.819Z,950.18
2018-01-22T05:25:31.821Z,950.18
2018-01-22T05:26:31.824Z,950.18
2018-01-22T05:27:31.825Z,950.17
2018-01-22T05:28:31.826Z,950.22
2018-01-22T05:29:31.828Z,950.25
2018-01-22T05:30:31.830Z,950.23
2018-01-22T05:31:31.832Z,950.26
2018-01-22T05:32:31.833Z,950.31
2018-01-22T05:33:31.835Z,950.24
2018-01-22T05:34:31.837Z,950.24
2018-01-22T05:35:31.840Z,950.33
2018-01-22T05:36:31.840Z,950.21
2018-01-22T05:37:31.843Z,950.27
2018-01-22T05:38:31.844Z,950.26
2018-01-22T05:39:31.846Z,950.18
2018-01-22T05:40:31.852Z,950.18
2018-01-22T05:41:31.854Z,950.21
2018-01-22T05:42:31.852Z,950.25
2018-01-22T05:43:31.854Z,950.25
2018-01-22T05:44:31.855Z,950.28
2018-01-22T05:45:31.858Z,950.26
2018-01-22T05:46:31.859Z,950.26
2018-01-22T05:47:31.867Z,950.29
2018-01-22T05:48:31.868Z,950.31
2018-01-22T05:49:31.868Z,950.28
2018-01-22T05:50:31.870Z,950.30
2018-01-22T05:51:31.871Z,950.25
2018-01-22T05:52:31.872Z,950.27
2018-01-22T05:53:31.874Z,950.28
2018-01-22T05:54:31.874Z,950.27
2018-01-22T05:55:31.877Z,950.30
2018-01-22T05:56:31.880Z,950.26
2018-01-22T05:57:31.880Z,950.31
2018-01-22T05:58:31.882Z,950.28
2018-01-22T05:59:31.885Z,950.32
2018-01-22T06:00:31.887Z,950.29
2018-01-22T06:01:31.888Z,950.32
2018-01-22T06:02:31.890Z,950.33
2018-01-22T06:03:31.896Z,950.32
2018-01-22T06:04:31.893Z,950.29
2018-01-22T06:05:31.895Z,950.26
2018-01-22T06:06:31.904Z,950.22
2018-01-22T06:07:31.901Z,950.23
2018-01-22T06:08:31.902Z,950.28
2018-01-22T06:09:31.904Z,950.27
2018-01-22T06:10:31.905Z,950.27
2018-01-22T06:11:31.908Z,950.33
2018-01-22T06:12:31.909Z,950.32
2018-01-22T06:13:31.912Z,950.30
2018-01-22T06:14:31.915Z,950.29
2018-01-22T06:15:31.968Z,950.28
2018-01-22T06:16:31.918Z,950.32
2018-01-22T06:17:31.920Z,950.33
2018-01-22T06:18:31.924Z,950.31
2018-01-22T06:19:31.924Z,950.34
2018-01-22T06:20:31.926Z,950.38
2018-01-22T06:21:31.928Z,950.36
2018-01-22T06:22:31.930Z,950.37
2018-01-22T06:23:31.933Z,950.37
2018-01-22T06:24:31.934Z,950.39
2018-01-22T06:25:31.940Z,950.35
2018-01-22T06:26:31.940Z,950.43
2018-01-22T06:27:31.942Z,950.43
2018-01-22T06:28:31.944Z,950.47
2018-01-22T06:29:31.945Z,950.46
2018-01-22T06:30:31.948Z,950.48
2018-01-22T06:31:31.958Z,950.47
2018-01-22T06:32:31.958Z,950.49
2018-01-22T06:33:31.960Z,950.46
2018-01-22T06:34:31.957Z,950.46
2018-01-22T06:35:31.959Z,950.49
2018-01-22T06:36:31.960Z,950.50
2018-01-22T06:37:31.963Z,950.52
2018-01-22T06:38:31.965Z,950.50
2018-01-22T06:39:31.968Z,950.42
2018-01-22T06:40:31.969Z,950.46
2018-01-22T06:41:31.972Z,950.43
2018-01-22T06:42:31.975Z,950.37
2018-01-22T06:43:31.978Z,950.37
2018-01-22T06:44:31.978Z,950.37
2018-01-22T06:45:31.981Z,950.37
2018-01-22T06:46:31.983Z,950.37
2018-01-22T06:47:31.987Z,950.43
2018-01-22T06:48:32.035Z,950.34
2018-01-22T06:49:31.991Z,950.40
2018-01-22T06:50:31.993Z,950.37
2018-01-22T06:51:31.995Z,950.32
2018-01-22T06:52:31.997Z,950.34
2018-01-22T06:53:32.000Z,950.36
2018-01-22T06:54:32.002Z,950.35
2018-01-22T06:55:32.004Z,950.30
2018-01-22T06:56:32.006Z,950.35
2018-01-22T06:57:32.008Z,950.28
2018-01-22T06:58:32.011Z,950.25
2018-01-22T06:59:32.013Z,950.32
2018-01-22T07:00:32.015Z,950.29
2018-01-22T07:01:32.023Z,950.26
2018-01-22T07:02:32.021Z,950.26
2018-01-22T07:03:32.022Z,950.28
2018-01-22T07:04:32.022Z,950.32
2018-01-22T07:05:32.028Z,950.35
2018-01-22T07:06:32.029Z,950.31
2018-01-22T07:07:32.033Z,950.31
2018-01-22T07:08:32.035Z,950.29
2018-01-22T07:09:32.036Z,950.30
2018-01-22T07:10:32.043Z,950.33
2018-01-22T07:11:32.040Z,950.32
2018-01-22T07:12:32.041Z,950.33
2018-01-22T07:13:32.046Z,950.32
2018-01-22T07:14:32.047Z,950.28
2018-01-22T07:15:32.049Z,950.37
2018-01-22T07:16:32.051Z,950.40
2018-01-22T07:17:32.054Z,950.44
2018-01-22T07:18:32.056Z,950.46
2018-01-22T07:19:32.060Z,950.45
2018-01-22T07:20:32.060Z,950.48
2018-01-22T07:21:32.063Z,950.46
2018-01-22T07:22:32.067Z,950.45
2018-01-22T07:23:32.068Z,950.46
2018-01-22T07:24:32.070Z,950.42
2018-01-22T07:25:32.072Z,950.45
2018-01-22T07:26:32.077Z,950.45
2018-01-22T07:27:32.078Z,950.42
2018-01-22T07:28:32.079Z,950.45
2018-01-22T07:29:32.082Z,950.43
2018-01-22T07:30:32.085Z,950.47
2018-01-22T07:31:32.088Z,950.45
2018-01-22T07:32:32.090Z,950.46
2018-01-22T07:33:32.090Z,950.45
2018-01-22T07:34:32.094Z,950.45
2018-01-22T07:35:32.102Z,950.49
2018-01-22T07:36:32.101Z,950.39
2018-01-22T07:37:32.100Z,950.42
2018-01-22T07:38:32.106Z,950.42
2018-01-22T07:39:32.107Z,950.48
2018-01-22T07:40:32.108Z,950.45
2018-01-22T07:41:32.112Z,950.54
2018-01-22T07:42:32.114Z,950.52
2018-01-22T07:43:32.122Z,950.57
2018-01-22T07:44:32.118Z,950.62
2018-01-22T07:45:32.122Z,950.60
2018-01-22T07:46:32.125Z,950.59
2018-01-22T07:47:32.126Z,950.56
2018-01-22T07:48:32.128Z,950.55
2018-01-22T07:49:32.132Z,950.61
2018-01-22T07:50:32.134Z,950.60
2018-01-22T07:51:32.136Z,950.59
2018-01-22T07:52:32.137Z,950.62
2018-01-22T07:53:32.152Z,950.63
2018-01-22T07:54:32.143Z,950.59
2018-01-22T07:55:32.147Z,950.59
2018-01-22T07:56:32.149Z,950.60
2018-01-22T07:57:32.150Z,950.60
2018-01-22T07:58:32.154Z,950.61
2018-01-22T07:59:32.207Z,950.63
2018-01-22T08:00:32.158Z,950.61
2018-01-22T08:01:32.161Z,950.56
2018-01-22T08:02:32.163Z,950.58
2018-01-22T08:03:32.201Z,950.55
2018-01-22T08:04:32.167Z,950.59
2018-01-22T08:05:32.170Z,950.55
2018-01-22T08:06:32.174Z,950.56
2018-01-22T08:07:32.176Z,950.54
2018-01-22T08:08:32.177Z,950.50
2018-01-22T08:09:32.179Z,950.54
2018-01-22T08:10:32.187Z,950.49
2018-01-22T08:11:32.187Z,950.48
2018-01-22T08:12:32.188Z,950.39
2018-01-22T08:13:32.236Z,950.38
2018-01-22T08:14:32.192Z,950.37
2018-01-22T08:15:32.196Z,950.37
2018-01-22T08:16:32.198Z,950.32
2018-01-22T08:17:32.243Z,950.39
2018-01-22T08:18:32.204Z,950.40
2018-01-22T08:19:32.206Z,950.39
2018-01-22T08:20:32.207Z,950.40
2018-01-22T08:21:32.210Z,950.39
2018-01-22T08:22:32.213Z,950.39
2018-01-22T08:23:32.216Z,950.40
2018-01-22T08:24:32.217Z,950.39
2018-01-22T08:25:32.220Z,950.43
2018-01-22T08:26:32.250Z,950.39
2018-01-22T08:27:32.225Z,950.39
2018-01-22T08:28:32.227Z,950.43
2018-01-22T08:29:32.256Z,950.42
2018-01-22T08:30:32.233Z,950.39
2018-01-22T08:31:32.235Z,950.45
2018-01-22T08:32:32.237Z,950.47
2018-01-22T08:33:32.240Z,950.50
2018-01-22T08:34:32.242Z,950.47
2018-01-22T08:35:32.246Z,950.53
2018-01-22T08:36:32.248Z,950.59
2018-01-22T08:37:32.250Z,950.62
2018-01-22T08:38:32.253Z,950.56
2018-01-22T08:39:32.254Z,950.58
2018-01-22T08:40:32.264Z,950.63
2018-01-22T08:41:32.264Z,950.65
2018-01-22T08:42:32.263Z,950.62
2018-01-22T08:43:32.266Z,950.67
2018-01-22T08:44:32.268Z,950.63
2018-01-22T08:45:32.269Z,950.58
2018-01-22T08:46:32.273Z,950.54
2018-01-22T08:47:32.276Z,950.60
2018-01-22T08:48:32.278Z,950.60
2018-01-22T08:49:32.282Z,950.68
2018-01-22T08:50:32.283Z,950.66
2018-01-22T08:51:32.287Z,950.66
2018-01-22T08:52:32.289Z,950.66
2018-01-22T08:53:32.291Z,950.65
2018-01-22T08:54:32.294Z,950.58
2018-01-22T08:55:32.296Z,950.56
2018-01-22T08:56:32.298Z,950.65
2018-01-22T08:57:32.301Z,950.62
2018-01-22T08:58:32.304Z,950.61
2018-01-22T08:59:32.308Z,950.64
2018-01-22T09:00:32.310Z,950.70
2018-01-22T09:01:32.312Z,950.61
2018-01-22T09:02:32.317Z,950.63
2018-01-22T09:03:32.316Z,950.66
2018-01-22T09:04:32.319Z,950.67
2018-01-22T09:05:32.327Z,950.75
2018-01-22T09:06:32.324Z,950.82
2018-01-22T09:07:32.327Z,950.80
2018-01-22T09:08:32.328Z,950.84
2018-01-22T09:09:32.334Z,950.81
2018-01-22T09:10:32.333Z,950.76
2018-01-22T09:11:32.338Z,950.81
2018-01-22T09:12:32.339Z,950.78
2018-01-22T09:13:32.342Z,950.75
2018-01-22T09:14:32.345Z,950.79
2018-01-22T09:15:32.347Z,950.82
2018-01-22T09:16:32.349Z,950.82
2018-01-22T09:17:32.354Z,950.86
2018-01-22T09:18:32.362Z,950.87
2018-01-22T09:19:32.358Z,950.87
2018-01-22T09:20:32.359Z,950.80
2018-01-22T09:21:32.362Z,950.81
2018-01-22T09:22:32.365Z,950.86
2018-01-22T09:23:32.369Z,950.82
2018-01-22T09:24:32.369Z,950.78
2018-01-22T09:25:32.372Z,950.82
2018-01-22T09:26:32.374Z,950.84
2018-01-22T09:27:32.380Z,950.83
2018-01-22T09:28:32.380Z,950.88
2018-01-22T09:29:32.383Z,950.93
2018-01-22T09:30:32.386Z,950.95
2018-01-22T09:31:32.389Z,950.99
2018-01-22T09:32:32.387Z,951.03
2018-01-22T09:33:32.389Z,951.04
2018-01-22T09:34:32.392Z,950.97
2018-01-22T09:35:32.394Z,950.95
2018-01-22T09:36:32.399Z,950.97
2018-01-22T09:37:32.399Z,950.93
2018-01-22T09:38:32.401Z,950.95
2018-01-22T09:39:32.404Z,950.89
2018-01-22T09:40:32.406Z,950.89
2018-01-22T09:41:32.410Z,950.89
2018-01-22T09:42:32.412Z,950.98
2018-01-22T09:43:32.416Z,950.90
2018-01-22T09:44:32.418Z,950.81
2018-01-22T09:45:32.419Z,950.83
2018-01-22T09:46:32.423Z,950.86
2018-01-22T09:47:32.426Z,950.90
2018-01-22T09:48:32.427Z,950.87
2018-01-22T09:49:32.429Z,950.86
2018-01-22T09:50:32.436Z,950.91
2018-01-22T09:51:32.439Z,950.97
2018-01-22T09:52:32.444Z,951.00
2018-01-22T09:53:32.444Z,951.11
2018-01-22T09:54:32.446Z,951.14
2018-01-22T09:55:32.449Z,951.17
2018-01-22T09:56:32.450Z,951.28
2018-01-22T09:57:32.454Z,951.30
2018-01-22T09:58:32.457Z,951.29
2018-01-22T09:59:32.459Z,951.21
2018-01-22T10:00:32.461Z,951.09
2018-01-22T10:01:32.464Z,950.88
2018-01-22T10:02:32.468Z,950.79
2018-01-22T10:03:32.471Z,950.71
2018-01-22T10:04:32.471Z,950.65
2018-01-22T10:05:32.475Z,950.57
2018-01-22T10:06:32.478Z,950.57
2018-01-22T10:07:32.479Z,950.59
2018-01-22T10:08:32.484Z,950.57
2018-01-22T10:09:32.484Z,950.66
2018-01-22T10:10:32.487Z,950.67
2018-01-22T10:11:32.491Z,950.72
2018-01-22T10:12:32.494Z,950.72
2018-01-22T10:13:32.495Z,950.71
2018-01-22T10:14:32.499Z,950.71
2018-01-22T10:15:32.499Z,950.62
2018-01-22T10:16:32.503Z,950.66
2018-01-22T10:17:32.505Z,950.70
2018-01-22T10:18:32.508Z,950.73
2018-01-22T10:19:32.512Z,950.77
2018-01-22T10:20:32.511Z,950.78
2018-01-22T10:21:32.515Z,950.80
2018-01-22T10:22:32.519Z,950.90
2018-01-22T10:23:32.523Z,950.91
2018-01-22T10:24:32.523Z,950.87
2018-01-22T10:25:32.526Z,950.87
2018-01-22T10:26:32.529Z,950.87
2018-01-22T10:27:32.532Z,950.90
2018-01-22T10:28:32.535Z,950.93
2018-01-22T10:29:32.537Z,950.97
2018-01-22T10:30:32.538Z,950.98
2018-01-22T10:31:32.544Z,950.96
2018-01-22T10:32:32.545Z,950.92
2018-01-22T10:33:32.544Z,950.90
2018-01-22T10:34:32.549Z,950.91
2018-01-22T10:35:32.557Z,950.90
2018-01-22T10:36:32.554Z,950.90
2018-01-22T10:37:32.556Z,950.89
2018-01-22T10:38:32.571Z,950.85
2018-01-22T10:39:32.562Z,950.80
2018-01-22T10:40:32.564Z,950.83
2018-01-22T10:41:32.567Z,950.88
2018-01-22T10:42:32.571Z,950.84
2018-01-22T10:43:32.572Z,950.88
2018-01-22T10:44:32.574Z,950.87
2018-01-22T10:45:32.576Z,950.81
2018-01-22T10:46:32.579Z,950.78
2018-01-22T10:47:32.587Z,950.76
2018-01-22T10:48:32.584Z,950.67
2018-01-22T10:49:32.587Z,950.62
2018-01-22T10:50:32.590Z,950.63
2018-01-22T10:51:32.597Z,950.60
2018-01-22T10:52:32.595Z,950.58
2018-01-22T10:53:32.599Z,950.59
2018-01-22T10:54:32.653Z,950.49
2018-01-22T10:55:32.603Z,950.54
2018-01-22T10:56:32.604Z,950.56
2018-01-22T10:57:32.608Z,950.57
2018-01-22T10:58:32.610Z,950.52
2018-01-22T10:59:32.617Z,950.48
2018-01-22T11:00:32.615Z,950.44
2018-01-22T11:01:32.617Z,950.44
2018-01-22T11:02:32.622Z,950.41
2018-01-22T11:03:32.629Z,950.37
2018-01-22T11:04:32.632Z,950.35
2018-01-22T11:05:32.629Z,950.31
2018-01-22T11:06:32.632Z,950.29
2018-01-22T11:07:32.635Z,950.23
2018-01-22T11:08:32.635Z,950.23
2018-01-22T11:09:32.638Z,950.27
2018-01-22T11:10:32.645Z,950.19
2018-01-22T11:11:32.644Z,950.16
2018-01-22T11:12:32.647Z,950.17
2018-01-22T11:13:32.649Z,950.11
2018-01-22T11:14:32.651Z,950.11
2018-01-22T11:15:32.656Z,950.11
2018-01-22T11:16:32.657Z,950.11
2018-01-22T11:17:32.658Z,950.07
2018-01-22T11:18:32.663Z,950.02
2018-01-22T11:19:32.664Z,950.07
2018-01-22T11:20:32.668Z,950.03
2018-01-22T11:21:32.670Z,949.97
2018-01-22T11:22:32.672Z,949.95
2018-01-22T11:23:32.675Z,949.93
2018-01-22T11:24:32.677Z,949.84
2018-01-22T11:25:32.680Z,949.81
2018-01-22T11:26:32.692Z,949.81
2018-01-22T11:27:32.690Z,949.80
2018-01-22T11:28:32.694Z,949.76
2018-01-22T11:29:32.691Z,949.70
2018-01-22T11:30:32.693Z,949.68
2018-01-22T11:31:32.696Z,949.70
2018-01-22T11:32:32.697Z,949.67
2018-01-22T11:33:32.703Z,949.61
2018-01-22T11:34:32.705Z,949.62
2018-01-22T11:35:32.706Z,949.58
2018-01-22T11:36:32.712Z,949.57
2018-01-22T11:37:32.712Z,949.57
2018-01-22T11:38:32.714Z,949.59
2018-01-22T11:39:32.719Z,949.55
2018-01-22T11:40:32.720Z,949.56
2018-01-22T11:41:32.725Z,949.50
2018-01-22T11:42:32.725Z,949.50
2018-01-22T11:43:32.727Z,949.44
2018-01-22T11:44:32.729Z,949.46
2018-01-22T11:45:32.739Z,949.44
2018-01-22T11:46:32.735Z,949.44
2018-01-22T11:47:32.738Z,949.41
2018-01-22T11:48:32.741Z,949.38
2018-01-22T11:49:32.744Z,949.34
2018-01-22T11:50:32.763Z,949.30
2018-01-22T11:51:32.748Z,949.28
2018-01-22T11:52:32.750Z,949.22
2018-01-22T11:53:32.763Z,949.23
2018-01-22T11:54:32.758Z,949.22
2018-01-22T11:55:32.759Z,949.26
2018-01-22T11:56:32.761Z,949.21
2018-01-22T11:57:32.764Z,949.18
2018-01-22T11:58:32.768Z,949.20
2018-01-22T11:59:32.771Z,949.13
2018-01-22T12:00:32.771Z,949.14
2018-01-22T12:01:32.799Z,949.14
2018-01-22T12:02:32.777Z,949.10
2018-01-22T12:03:32.780Z,949.11
2018-01-22T12:04:32.782Z,949.04
2018-01-22T12:05:32.785Z,949.03
2018-01-22T12:06:32.788Z,949.04
2018-01-22T12:07:32.791Z,949.02
2018-01-22T12:08:32.793Z,948.95
2018-01-22T12:09:32.798Z,948.93
2018-01-22T12:10:32.800Z,948.96
2018-01-22T12:11:32.803Z,948.89
2018-01-22T12:12:32.804Z,948.90
2018-01-22T12:13:32.808Z,948.83
2018-01-22T12:14:32.810Z,948.83
2018-01-22T12:15:32.813Z,948.81
2018-01-22T12:16:32.815Z,948.80
2018-01-22T12:17:32.818Z,948.78
2018-01-22T12:18:32.822Z,948.70
2018-01-22T12:19:32.824Z,948.65
2018-01-22T12:20:32.828Z,948.63
2018-01-22T12:21:32.827Z,948.65
2018-01-22T12:22:32.833Z,948.61
2018-01-22T12:23:32.835Z,948.62
2018-01-22T12:24:32.837Z,948.61
2018-01-22T12:25:32.841Z,948.61
2018-01-22T12:26:32.843Z,948.58
2018-01-22T12:27:32.847Z,948.55
2018-01-22T12:28:32.848Z,948.52